Adak, AK

7:31 AM HDT on July 27, 2016 (GMT -0900)
Adak | | Change Station

Elev 13 ft 51.88 °N, 176.65 °W | Updated 15 minutes ago

Overcast
Overcast
48 °F
Feels Like 48 °F
N
0
Wind Variable Wind from North

Today
High -- | Low -- °F
--% Chance of Precip.
Yesterday
High -- | Low -- °F
Precip. -- in
Pressure 29.99 in
Visibility 10.0 miles
Clouds Mostly Cloudy 500 ft
Overcast 9500 ft
Dew Point 41 °F
Humidity 76%
Rainfall 0.00 in
Snow Depth Not available.
7:02 AM 10:42 PM
Last Quarter, 42% visible
METAR PADK 271616Z AUTO 00000KT 10SM BKN005 OVC095 09/05 A2999 RMK AO1
Pressure 29.99 in
Visibility 10.0 miles
Clouds Mostly Cloudy 500 ft
Overcast 9500 ft
Dew Point 41 °F
Humidity 76%
Rainfall 0.00 in
Snow Depth Not available.
7:02 AM 10:42 PM
Last Quarter, 42% visible
METAR PADK 271616Z AUTO 00000KT 10SM BKN005 OVC095 09/05 A2999 RMK AO1

10-Day Weather Forecast

Almanac

Astronomy

Jul. 27, 2016 Rise Set
Actual Time
Civil Twilight
Nautical Twilight
Astronomical Twilight
Moon
Length of Visible Light
Length of Day
Tomorrow will be .
, % of the Moon is Illuminated

Today's Extremes

State Highs State Lows

Community

WunderPhotos

Upload Photos

1,927,880 photos uploaded!

WunderBlog® & News

Nearby

Air Quality

  Air Quality AQ Index Pollutant
Not available.

Snow Depth

Station Depth Elevation

Earthquake Activity

City Distance Mag. Time & Date
Minimum magnitude displayed is 2.5.

Coastal Water Temperatures

Place Temperature

Stations

Nearby Weather Stations

Station Location Temp. Windchill Dew Point Humidity Wind Precip. Elev Updated Type
                   

Watches & Warnings

There are currently no watches in effect.